createdAt,value
2022-09-11T00:00:56.348Z,89.09
2022-09-11T00:03:24.422Z,89.27
2022-09-11T00:05:50.683Z,89.53
2022-09-11T00:08:16.970Z,90.41
2022-09-11T00:10:43.232Z,90.96
2022-09-11T00:13:09.491Z,93.27
2022-09-11T00:15:35.766Z,91.30
2022-09-11T00:18:02.249Z,90.79
2022-09-11T00:20:28.750Z,89.69
2022-09-11T00:22:55.020Z,89.36
2022-09-11T00:25:21.280Z,89.22
2022-09-11T00:27:48.649Z,89.73
2022-09-11T00:30:14.912Z,89.05
2022-09-11T00:32:41.196Z,89.01
2022-09-11T00:35:07.580Z,88.56
2022-09-11T00:37:33.848Z,88.61
2022-09-11T00:40:00.255Z,88.27
2022-09-11T00:42:26.568Z,88.74
2022-09-11T00:44:52.833Z,88.53
2022-09-11T00:47:19.098Z,88.58
2022-09-11T00:49:45.506Z,92.39
2022-09-11T00:52:11.785Z,90.34
2022-09-11T00:54:38.049Z,89.71
2022-09-11T00:57:04.349Z,89.58
2022-09-11T00:59:31.038Z,89.32
2022-09-11T01:01:57.380Z,89.39
2022-09-11T01:04:23.683Z,89.22
2022-09-11T01:06:50.006Z,89.27
2022-09-11T01:09:16.281Z,89.01
2022-09-11T01:11:42.549Z,89.23
2022-09-11T01:14:08.803Z,89.67
2022-09-11T01:16:35.159Z,89.43
2022-09-11T01:19:01.443Z,90.79
2022-09-11T01:21:32.474Z,90.19
2022-09-11T01:24:00.610Z,89.63
2022-09-11T01:26:27.427Z,89.48
2022-09-11T01:28:53.687Z,89.95
2022-09-11T01:31:19.985Z,89.58
2022-09-11T01:33:46.248Z,89.77
2022-09-11T01:36:12.503Z,90.07
2022-09-11T01:38:39.078Z,91.23
2022-09-11T01:41:08.044Z,90.32
2022-09-11T01:43:34.308Z,90.54
2022-09-11T01:46:00.618Z,90.57
2022-09-11T01:48:26.918Z,90.45
2022-09-11T01:50:54.046Z,89.89
2022-09-11T01:53:21.954Z,89.29
2022-09-11T01:55:49.056Z,89.41
2022-09-11T01:58:15.397Z,89.35
2022-09-11T02:00:41.683Z,89.03
2022-09-11T02:03:08.148Z,90.80
2022-09-11T02:05:34.414Z,89.86
2022-09-11T02:08:00.678Z,89.59
2022-09-11T02:10:26.948Z,89.27
2022-09-11T02:12:53.203Z,89.11
2022-09-11T02:15:19.550Z,89.22
2022-09-11T02:17:46.272Z,89.05
2022-09-11T02:20:12.523Z,89.13
2022-09-11T02:22:38.785Z,89.13
2022-09-11T02:25:05.499Z,89.26
2022-09-11T02:27:33.239Z,89.96
2022-09-11T02:29:59.496Z,90.27
2022-09-11T02:32:26.762Z,90.72
2022-09-11T02:34:53.168Z,90.57
2022-09-11T02:37:19.425Z,90.20
2022-09-11T02:39:45.745Z,90.17
2022-09-11T02:42:12.407Z,90.09
2022-09-11T02:44:38.689Z,90.05
2022-09-11T02:47:05.544Z,89.95
2022-09-11T02:49:31.804Z,89.96
2022-09-11T02:51:59.189Z,90.33
2022-09-11T02:54:25.460Z,90.39
2022-09-11T02:56:51.733Z,90.50
2022-09-11T02:59:19.029Z,91.22
2022-09-11T03:01:45.343Z,90.53
2022-09-11T03:04:11.716Z,90.22
2022-09-11T03:06:38.456Z,89.95
2022-09-11T03:09:04.722Z,89.64
2022-09-11T03:11:32.698Z,89.53
2022-09-11T03:13:58.866Z,89.78
2022-09-11T03:16:25.609Z,91.02
2022-09-11T03:18:51.939Z,91.12
2022-09-11T03:21:18.849Z,91.61
2022-09-11T03:23:45.121Z,90.63
2022-09-11T03:26:11.384Z,90.28
2022-09-11T03:28:37.664Z,89.95
2022-09-11T03:31:04.977Z,89.62
2022-09-11T03:33:31.256Z,89.59
2022-09-11T03:35:57.529Z,89.78
2022-09-11T03:38:23.805Z,90.23
2022-09-11T03:40:50.279Z,89.88
2022-09-11T03:43:16.713Z,89.68
2022-09-11T03:45:43.093Z,90.02
2022-09-11T03:48:10.008Z,90.11
2022-09-11T03:50:36.262Z,90.59
2022-09-11T03:53:02.775Z,90.24
2022-09-11T03:55:29.048Z,89.94
2022-09-11T03:57:55.335Z,89.38
2022-09-11T04:00:22.125Z,89.41
2022-09-11T04:02:48.583Z,89.29
2022-09-11T04:05:14.832Z,89.47
2022-09-11T04:07:41.439Z,88.98
2022-09-11T04:10:07.700Z,89.49
2022-09-11T04:12:33.967Z,89.47
2022-09-11T04:15:00.232Z,90.57
2022-09-11T04:17:26.501Z,90.48
2022-09-11T04:19:52.760Z,90.19
2022-09-11T04:22:19.041Z,90.04
2022-09-11T04:24:45.295Z,89.72
2022-09-11T04:27:12.856Z,89.69
2022-09-11T04:29:39.121Z,89.41
2022-09-11T04:32:05.389Z,89.77
2022-09-11T04:34:31.639Z,89.67
2022-09-11T04:36:57.932Z,89.53
2022-09-11T04:39:24.221Z,89.02
2022-09-11T04:41:50.486Z,89.54
2022-09-11T04:44:16.739Z,91.09
2022-09-11T04:46:42.997Z,90.49
2022-09-11T04:49:09.249Z,90.81
2022-09-11T04:51:35.554Z,91.80
2022-09-11T04:54:01.900Z,92.10
2022-09-11T04:56:29.154Z,91.83
2022-09-11T04:58:55.423Z,93.68
2022-09-11T05:01:21.740Z,92.94
2022-09-11T05:03:48.137Z,93.02
2022-09-11T05:06:16.333Z,92.18
2022-09-11T05:08:42.597Z,91.74
2022-09-11T05:11:09.480Z,91.92
2022-09-11T05:13:36.676Z,92.11
2022-09-11T05:16:03.169Z,91.91
2022-09-11T05:18:29.483Z,90.87
2022-09-11T05:20:56.011Z,91.36
2022-09-11T05:23:22.278Z,91.39
2022-09-11T05:25:48.995Z,91.67
2022-09-11T05:28:15.852Z,92.79
2022-09-11T05:30:42.456Z,92.64
2022-09-11T05:33:08.893Z,92.64
2022-09-11T05:35:35.793Z,92.90
2022-09-11T05:38:02.067Z,93.37
2022-09-11T05:40:28.343Z,92.96
2022-09-11T05:42:54.618Z,92.25
2022-09-11T05:45:22.207Z,92.12
2022-09-11T05:47:48.475Z,92.26
2022-09-11T05:50:14.766Z,92.93
2022-09-11T05:52:41.019Z,92.81
2022-09-11T05:55:07.286Z,92.24
2022-09-11T05:57:33.550Z,92.54
2022-09-11T06:00:00.717Z,92.10
2022-09-11T06:02:27.110Z,91.78
2022-09-11T06:04:53.420Z,91.70
2022-09-11T06:07:19.679Z,92.33
2022-09-11T06:09:45.930Z,92.72
2022-09-11T06:12:12.379Z,92.52
2022-09-11T06:14:38.646Z,91.29
2022-09-11T06:17:06.384Z,91.68
2022-09-11T06:19:32.646Z,91.08
2022-09-11T06:21:58.900Z,90.93
2022-09-11T06:24:25.348Z,89.85
2022-09-11T06:26:51.611Z,89.88
2022-09-11T06:29:17.878Z,88.88
2022-09-11T06:31:44.350Z,88.66
2022-09-11T06:34:10.617Z,89.09
2022-09-11T06:36:37.119Z,88.80
2022-09-11T06:39:03.393Z,88.93
2022-09-11T06:41:29.703Z,89.36
2022-09-11T06:43:55.958Z,88.83
2022-09-11T06:46:24.802Z,90.44
2022-09-11T06:48:51.092Z,89.44
2022-09-11T06:51:17.451Z,89.56
2022-09-11T06:53:43.833Z,89.06
2022-09-11T06:56:10.215Z,89.61
2022-09-11T06:58:36.484Z,88.99
2022-09-11T07:01:03.467Z,89.37
2022-09-11T07:03:29.768Z,88.63
2022-09-11T07:05:56.041Z,88.95
2022-09-11T07:08:24.970Z,87.95
2022-09-11T07:10:51.554Z,89.56
2022-09-11T07:13:17.833Z,88.74
2022-09-11T07:15:44.224Z,88.22
2022-09-11T07:18:11.380Z,87.78
2022-09-11T07:20:38.209Z,87.85
2022-09-11T07:23:04.480Z,89.21
2022-09-11T07:25:30.757Z,88.66
2022-09-11T07:27:57.020Z,88.32
2022-09-11T07:30:23.271Z,88.76
2022-09-11T07:32:49.818Z,89.65
2022-09-11T07:35:21.310Z,89.18
2022-09-11T07:37:50.734Z,88.67
2022-09-11T07:40:17.393Z,87.62
2022-09-11T07:42:43.717Z,86.74
2022-09-11T07:45:10.228Z,86.31
2022-09-11T07:47:36.512Z,86.41
2022-09-11T07:50:02.781Z,86.83
2022-09-11T07:52:29.054Z,86.76
2022-09-11T07:54:55.307Z,87.36
2022-09-11T07:57:24.084Z,86.13
2022-09-11T07:59:50.348Z,83.59
2022-09-11T08:02:17.997Z,83.21
2022-09-11T08:04:44.381Z,83.62
2022-09-11T08:07:10.656Z,84.32
2022-09-11T08:09:36.922Z,82.78
2022-09-11T08:12:03.209Z,83.29
2022-09-11T08:14:29.676Z,82.51
2022-09-11T08:16:58.691Z,83.37
2022-09-11T08:19:24.942Z,83.72
2022-09-11T08:21:51.245Z,83.35
2022-09-11T08:24:17.559Z,83.73
2022-09-11T08:26:48.606Z,82.45
2022-09-11T08:29:15.321Z,82.31
2022-09-11T08:31:41.785Z,83.00
2022-09-11T08:34:08.043Z,83.74
2022-09-11T08:36:34.321Z,83.70
2022-09-11T08:39:02.839Z,82.28
2022-09-11T08:41:29.119Z,83.24
2022-09-11T08:43:56.035Z,83.09
2022-09-11T08:46:22.312Z,84.21
2022-09-11T08:48:48.566Z,83.98
2022-09-11T08:51:14.836Z,84.23
2022-09-11T08:53:41.137Z,85.12
2022-09-11T08:56:07.446Z,84.85
2022-09-11T08:58:33.691Z,84.31
2022-09-11T09:01:00.034Z,84.32
2022-09-11T09:03:26.417Z,84.56
2022-09-11T09:05:52.664Z,84.97
2022-09-11T09:08:18.982Z,85.29
2022-09-11T09:10:45.240Z,84.96
2022-09-11T09:13:11.544Z,85.88
2022-09-11T09:15:38.375Z,86.87
2022-09-11T09:18:04.702Z,85.61
2022-09-11T09:20:30.961Z,87.52
2022-09-11T09:22:57.260Z,86.11
2022-09-11T09:25:23.608Z,85.87
2022-09-11T09:27:49.920Z,87.23
2022-09-11T09:30:16.209Z,86.30
2022-09-11T09:32:42.545Z,87.25
2022-09-11T09:35:08.812Z,87.43
2022-09-11T09:37:35.140Z,87.57
2022-09-11T09:40:01.475Z,86.61
2022-09-11T09:42:28.249Z,85.81
2022-09-11T09:44:54.521Z,85.03
2022-09-11T09:47:20.905Z,84.09
2022-09-11T09:49:47.172Z,83.49
2022-09-11T09:52:13.448Z,82.44
2022-09-11T09:54:39.704Z,82.44
2022-09-11T09:57:05.976Z,86.83
2022-09-11T09:59:32.256Z,86.29
2022-09-11T10:01:58.608Z,84.29
2022-09-11T10:04:25.173Z,85.64
2022-09-11T10:06:52.045Z,86.87
2022-09-11T10:09:18.386Z,88.09
2022-09-11T10:11:46.623Z,85.99
2022-09-11T10:14:24.450Z,85.00
2022-09-11T10:16:59.132Z,85.72
2022-09-11T10:19:25.875Z,85.68
2022-09-11T10:21:52.123Z,85.67
2022-09-11T10:24:18.394Z,85.67
2022-09-11T10:26:46.033Z,87.00
2022-09-11T10:29:12.353Z,87.67
2022-09-11T10:31:38.617Z,86.76
2022-09-11T10:34:05.923Z,88.44
2022-09-11T10:36:32.778Z,88.59
2022-09-11T10:38:59.061Z,88.57
2022-09-11T10:41:26.093Z,86.91
2022-09-11T10:43:52.319Z,87.78
2022-09-11T10:46:18.573Z,87.97
2022-09-11T10:48:44.841Z,86.66
2022-09-11T10:51:11.733Z,86.19
2022-09-11T10:53:38.057Z,86.89
2022-09-11T10:56:05.958Z,85.35
2022-09-11T10:58:32.719Z,86.94
2022-09-11T11:00:58.985Z,86.33
2022-09-11T11:03:25.266Z,85.09
2022-09-11T11:05:51.520Z,85.85
2022-09-11T11:08:17.791Z,85.37
2022-09-11T11:10:44.524Z,83.48
2022-09-11T11:13:14.461Z,86.69
2022-09-11T11:15:40.743Z,85.95
2022-09-11T11:18:07.326Z,86.60
2022-09-11T11:20:33.583Z,87.72
2022-09-11T11:22:59.861Z,87.00
2022-09-11T11:25:27.305Z,87.98
2022-09-11T11:27:53.583Z,88.42
2022-09-11T11:30:19.849Z,87.95
2022-09-11T11:32:46.765Z,87.34
2022-09-11T11:35:13.035Z,87.22
2022-09-11T11:37:39.304Z,87.25
2022-09-11T11:40:06.003Z,87.32
2022-09-11T11:42:32.279Z,87.58
2022-09-11T11:44:58.561Z,87.84
2022-09-11T11:47:25.243Z,88.22
2022-09-11T11:49:51.553Z,88.22
2022-09-11T11:52:17.839Z,87.89
2022-09-11T11:54:44.650Z,89.80
2022-09-11T11:57:10.919Z,88.99
2022-09-11T11:59:37.178Z,88.49
2022-09-11T12:02:03.668Z,87.92
2022-09-11T12:04:30.332Z,87.45
2022-09-11T12:06:56.595Z,86.74
2022-09-11T12:09:22.873Z,86.11
2022-09-11T12:11:49.133Z,86.47
2022-09-11T12:14:15.409Z,86.60
2022-09-11T12:16:43.371Z,85.32
2022-09-11T12:19:09.806Z,85.37
2022-09-11T12:21:36.063Z,84.81
2022-09-11T12:24:02.591Z,84.88
2022-09-11T12:26:29.413Z,86.52
2022-09-11T12:28:55.693Z,86.73
2022-09-11T12:31:21.994Z,86.10
2022-09-11T12:33:48.352Z,86.24
2022-09-11T12:36:16.062Z,84.99
2022-09-11T12:38:44.882Z,85.14
2022-09-11T12:41:12.978Z,85.48
2022-09-11T12:43:40.249Z,85.63
2022-09-11T12:46:06.530Z,85.30
2022-09-11T12:48:33.264Z,85.15
2022-09-11T12:50:59.983Z,86.08
2022-09-11T12:53:26.281Z,85.86
2022-09-11T12:55:52.539Z,84.80
2022-09-11T12:58:18.817Z,86.20
2022-09-11T13:00:45.961Z,85.46
2022-09-11T13:03:12.536Z,84.78
2022-09-11T13:05:38.824Z,84.22
2022-09-11T13:08:05.080Z,83.25
2022-09-11T13:10:33.387Z,82.97
2022-09-11T13:12:59.747Z,84.73
2022-09-11T13:15:26.034Z,84.98
2022-09-11T13:17:52.323Z,84.40
2022-09-11T13:20:18.624Z,86.45
2022-09-11T13:22:48.647Z,84.08
2022-09-11T13:25:15.117Z,84.42
2022-09-11T13:27:41.500Z,83.14
2022-09-11T13:30:07.758Z,82.77
2022-09-11T13:32:34.041Z,82.68
2022-09-11T13:35:01.855Z,82.49
2022-09-11T13:37:29.029Z,83.25
2022-09-11T13:39:55.324Z,82.22
2022-09-11T13:42:23.099Z,81.27
2022-09-11T13:44:49.516Z,80.37
2022-09-11T13:47:17.627Z,79.10
2022-09-11T13:49:44.003Z,78.53
2022-09-11T13:52:10.264Z,79.14
2022-09-11T13:54:38.129Z,78.98
2022-09-11T13:57:04.417Z,80.02
2022-09-11T13:59:30.689Z,79.76
2022-09-11T14:01:56.996Z,77.94
2022-09-11T14:04:23.267Z,78.19
2022-09-11T14:06:49.536Z,76.21
2022-09-11T14:09:15.834Z,77.91
2022-09-11T14:11:42.097Z,77.55
2022-09-11T14:14:08.358Z,78.37
2022-09-11T14:16:34.618Z,77.79
2022-09-11T14:19:00.877Z,76.10
2022-09-11T14:21:27.127Z,74.38
2022-09-11T14:23:53.370Z,73.93
2022-09-11T14:26:19.629Z,73.89
2022-09-11T14:28:45.884Z,74.14
2022-09-11T14:31:12.323Z,73.39
2022-09-11T14:33:38.631Z,73.92
2022-09-11T14:36:07.783Z,72.65
2022-09-11T14:38:35.185Z,71.12
2022-09-11T14:41:01.431Z,71.17
2022-09-11T14:43:27.719Z,72.65
2022-09-11T14:45:54.652Z,74.22
2022-09-11T14:48:20.874Z,73.18
2022-09-11T14:50:47.129Z,73.91
2022-09-11T14:53:14.869Z,73.12
2022-09-11T14:55:41.121Z,73.20
2022-09-11T14:58:07.379Z,73.55
2022-09-11T15:00:33.931Z,72.39
2022-09-11T15:03:00.785Z,70.73
2022-09-11T15:05:27.079Z,71.14
2022-09-11T15:07:53.408Z,70.44
2022-09-11T15:10:20.215Z,70.47
2022-09-11T15:12:47.541Z,70.41
2022-09-11T15:15:13.807Z,69.07
2022-09-11T15:17:40.063Z,69.79
2022-09-11T15:20:08.979Z,69.25
2022-09-11T15:22:35.283Z,69.27
2022-09-11T15:25:02.060Z,68.93
2022-09-11T15:27:28.369Z,69.50
2022-09-11T15:29:54.627Z,69.86
2022-09-11T15:32:21.191Z,68.93
2022-09-11T15:34:47.681Z,70.03
2022-09-11T15:37:13.936Z,70.73
2022-09-11T15:39:40.361Z,71.09
2022-09-11T15:42:07.478Z,71.63
2022-09-11T15:44:33.773Z,72.42
2022-09-11T15:47:00.071Z,71.98
2022-09-11T15:49:28.401Z,71.44
2022-09-11T15:51:54.709Z,71.81
2022-09-11T15:54:23.187Z,73.02
2022-09-11T15:56:49.451Z,72.51
2022-09-11T15:59:15.729Z,72.27
2022-09-11T16:01:42.078Z,72.38
2022-09-11T16:04:08.552Z,71.58
2022-09-11T16:06:34.807Z,71.26
2022-09-11T16:09:02.001Z,71.28
2022-09-11T16:11:29.090Z,71.30
2022-09-11T16:13:55.315Z,72.00
2022-09-11T16:16:21.589Z,71.99
2022-09-11T16:18:48.049Z,72.54
2022-09-11T16:21:14.299Z,72.27
2022-09-11T16:23:40.720Z,72.23
2022-09-11T16:26:07.077Z,73.34
2022-09-11T16:28:33.519Z,72.62
2022-09-11T16:30:59.833Z,72.94
2022-09-11T16:33:26.115Z,72.74
2022-09-11T16:35:52.748Z,72.67
2022-09-11T16:38:19.009Z,73.31
2022-09-11T16:40:45.271Z,73.04
2022-09-11T16:43:11.873Z,73.42
2022-09-11T16:45:39.704Z,73.71
2022-09-11T16:48:06.159Z,73.59
2022-09-11T16:50:32.900Z,74.43
2022-09-11T16:52:59.507Z,74.71
2022-09-11T16:55:25.920Z,74.46
2022-09-11T16:57:52.176Z,74.29
2022-09-11T17:00:18.437Z,75.21
2022-09-11T17:02:45.324Z,74.58
2022-09-11T17:05:12.147Z,76.27
2022-09-11T17:07:38.599Z,75.53
2022-09-11T17:10:04.884Z,76.27
2022-09-11T17:12:31.160Z,76.28
2022-09-11T17:14:57.482Z,76.01
2022-09-11T17:17:23.789Z,76.56
2022-09-11T17:19:50.998Z,76.90
2022-09-11T17:22:17.264Z,77.02
2022-09-11T17:24:43.525Z,76.70
2022-09-11T17:27:09.829Z,77.22
2022-09-11T17:29:36.131Z,77.23
2022-09-11T17:32:26.091Z,77.12
2022-09-11T17:34:48.662Z,77.59
2022-09-11T17:37:14.921Z,78.10
2022-09-11T17:39:44.220Z,78.32
2022-09-11T17:42:13.286Z,77.69
2022-09-11T17:44:41.213Z,78.01
2022-09-11T17:47:07.489Z,78.33
2022-09-11T17:49:33.765Z,79.04
2022-09-11T17:52:00.011Z,79.66
2022-09-11T17:54:27.754Z,79.61
2022-09-11T17:56:54.309Z,79.28
2022-09-11T17:59:20.589Z,78.62
2022-09-11T18:01:46.883Z,78.96
2022-09-11T18:04:13.441Z,80.26
2022-09-11T18:06:39.812Z,79.92
2022-09-11T18:09:11.789Z,81.04
2022-09-11T18:11:38.050Z,80.23
2022-09-11T18:14:04.498Z,80.47
2022-09-11T18:16:30.780Z,79.73
2022-09-11T18:18:57.083Z,79.82
2022-09-11T18:21:23.330Z,79.29
2022-09-11T18:23:49.854Z,80.61
2022-09-11T18:26:16.176Z,81.53
2022-09-11T18:28:42.460Z,81.44
2022-09-11T18:31:09.830Z,81.64
2022-09-11T18:33:36.210Z,83.46
2022-09-11T18:36:03.458Z,82.92
2022-09-11T18:38:32.947Z,82.30
2022-09-11T18:41:00.663Z,81.29
2022-09-11T18:43:26.922Z,84.01
2022-09-11T18:45:53.194Z,86.75
2022-09-11T18:48:19.469Z,89.09
2022-09-11T18:50:46.168Z,90.34
2022-09-11T18:53:12.657Z,90.94
2022-09-11T18:55:38.938Z,96.60
2022-09-11T18:58:05.655Z,94.38
2022-09-11T19:00:31.998Z,96.65
2022-09-11T19:02:59.699Z,97.15
2022-09-11T19:05:26.344Z,96.15
2022-09-11T19:07:52.617Z,95.27
2022-09-11T19:10:18.887Z,95.30
2022-09-11T19:12:45.201Z,95.19
2022-09-11T19:15:11.489Z,94.93
2022-09-11T19:17:38.303Z,95.68
2022-09-11T19:20:06.167Z,95.62
2022-09-11T19:22:32.423Z,95.29
2022-09-11T19:24:59.801Z,95.14
2022-09-11T19:27:26.173Z,94.86
2022-09-11T19:29:53.254Z,94.67
2022-09-11T19:32:19.443Z,94.54
2022-09-11T19:34:47.584Z,94.46
2022-09-11T19:37:15.134Z,94.23
2022-09-11T19:39:41.470Z,96.48
2022-09-11T19:42:09.133Z,97.30
2022-09-11T19:44:35.416Z,96.70
2022-09-11T19:47:01.704Z,95.86
2022-09-11T19:49:28.791Z,95.01
2022-09-11T19:51:55.169Z,94.68
2022-09-11T19:54:22.916Z,94.65
2022-09-11T19:56:50.132Z,94.16
2022-09-11T19:59:16.402Z,93.86
2022-09-11T20:01:42.771Z,93.78
2022-09-11T20:04:10.098Z,93.79
2022-09-11T20:06:36.360Z,93.59
2022-09-11T20:09:27.285Z,93.48
2022-09-11T20:11:49.030Z,93.79
2022-09-11T20:14:15.302Z,93.74
2022-09-11T20:16:41.617Z,93.95
2022-09-11T20:19:09.313Z,93.57
2022-09-11T20:21:36.066Z,93.51
2022-09-11T20:24:02.431Z,93.31
2022-09-11T20:26:28.708Z,93.74
2022-09-11T20:28:54.989Z,94.02
2022-09-11T20:31:21.368Z,93.85
2022-09-11T20:33:49.297Z,93.90
2022-09-11T20:36:15.577Z,94.46
2022-09-11T20:38:41.832Z,94.61
2022-09-11T20:41:08.123Z,94.63
2022-09-11T20:43:34.465Z,94.82
2022-09-11T21:00:31.963Z,93.93
2022-09-11T21:02:58.271Z,93.94
2022-09-11T21:05:24.532Z,94.65
2022-09-11T21:07:50.818Z,96.80
2022-09-11T21:10:17.098Z,96.01
2022-09-11T21:12:43.375Z,95.64
2022-09-11T21:15:10.276Z,94.97
2022-09-11T21:17:36.551Z,95.03
2022-09-11T21:20:02.829Z,96.53
2022-09-11T21:22:29.087Z,95.85
2022-09-11T21:24:55.357Z,95.91
2022-09-11T21:27:21.634Z,95.39
2022-09-11T21:29:47.902Z,95.43
2022-09-11T21:32:14.172Z,95.48
2022-09-11T21:34:40.442Z,95.48
2022-09-11T21:37:06.804Z,96.22
2022-09-11T21:39:33.064Z,95.64
2022-09-11T21:41:59.327Z,94.96
2022-09-11T21:44:25.593Z,94.65
2022-09-11T21:46:51.938Z,94.41
2022-09-11T21:49:18.234Z,94.20
2022-09-11T21:51:44.531Z,94.40
2022-09-11T21:54:10.797Z,94.15
2022-09-11T21:56:37.069Z,94.06
2022-09-11T21:59:03.346Z,94.33
2022-09-11T22:01:29.753Z,94.57
2022-09-11T22:03:56.106Z,94.73
2022-09-11T22:06:24.465Z,96.93
2022-09-11T22:08:51.021Z,97.10
2022-09-11T22:11:17.298Z,96.33
2022-09-11T22:13:43.638Z,96.30
2022-09-11T22:16:10.067Z,95.73
2022-09-11T22:18:36.375Z,97.03
2022-09-11T22:21:02.660Z,96.71
2022-09-11T22:23:28.956Z,96.62
2022-09-11T22:25:55.231Z,95.89
2022-09-11T22:28:21.484Z,95.99
2022-09-11T22:30:47.843Z,95.95
2022-09-11T22:33:14.251Z,96.09
2022-09-11T22:35:40.512Z,96.12
2022-09-11T22:38:06.772Z,96.27
2022-09-11T22:40:33.087Z,96.59
2022-09-11T22:43:00.065Z,96.63
2022-09-11T22:45:26.513Z,96.50
2022-09-11T22:47:52.802Z,96.74
2022-09-11T22:50:19.265Z,97.75
2022-09-11T22:52:45.537Z,97.72
2022-09-11T22:55:11.833Z,97.91
2022-09-11T22:57:38.160Z,97.54
2022-09-11T23:00:04.510Z,97.41
2022-09-11T23:02:30.771Z,97.17
2022-09-11T23:05:15.813Z,97.41
2022-09-11T23:07:42.142Z,97.58
2022-09-11T23:10:09.669Z,97.13
2022-09-11T23:12:37.288Z,97.02
2022-09-11T23:15:04.385Z,97.01
2022-09-11T23:17:30.576Z,97.13
2022-09-11T23:19:56.845Z,97.95
2022-09-11T23:22:23.099Z,98.13
2022-09-11T23:24:49.352Z,98.39
2022-09-11T23:27:15.605Z,97.70
2022-09-11T23:29:41.870Z,97.24
2022-09-11T23:32:08.128Z,97.00
2022-09-11T23:34:34.386Z,97.23
2022-09-11T23:37:00.647Z,97.15
2022-09-11T23:39:26.944Z,97.39
2022-09-11T23:41:53.212Z,97.58
2022-09-11T23:44:19.484Z,97.51
2022-09-11T23:46:45.760Z,97.31
2022-09-11T23:49:12.058Z,96.89
2022-09-11T23:51:38.360Z,97.00
2022-09-11T23:54:04.627Z,97.17
2022-09-11T23:56:30.893Z,97.62
2022-09-11T23:58:57.289Z,97.37
